Time;durP1;ratioP1;P1;durP2;ratioP2;P2;SDS_P1;SDS_P2;PMS_P1;PMS_P2;Temp;Humidity;BMP_temperature;BMP_pressure;BME280_temperature;BME280_humidity;BME280_pressure;Samples;Min_cycle;Max_cycle;Signal;HPM_P1;HPM_P2
2021/12/14 00:02:11;;;;;;;9.23;8.37;;;;;;;9.82;66.26;99011.03;8313745;28;20228;-84
2021/12/14 00:06:16;;;;;;;8.60;7.70;;;;;;;9.84;65.95;99016.19;8323403;28;20237;-84
2021/12/14 00:10:43;;;;;;;8.50;7.70;;;;;;;10.08;65.29;99017.31;8307923;28;20240;-84
2021/12/14 00:15:05;;;;;;;8.40;7.70;;;;;;;9.95;65.03;99017.63;8314069;28;20546;-84
2021/12/14 00:19:09;;;;;;;8.87;7.97;;;;;;;9.93;64.96;99021.97;8337653;28;20239;-84
2021/12/14 00:27:35;;;;;;;9.00;8.10;;;;;;;9.83;65.75;99020.53;8347448;28;20243;-84
2021/12/14 00:31:40;;;;;;;7.80;7.10;;;;;;;10.04;64.96;99024.31;8347629;28;20228;-84
2021/12/14 00:35:44;;;;;;;8.80;7.50;;;;;;;10.15;64.60;99019.72;8347656;28;20439;-84
2021/12/14 00:39:48;;;;;;;7.60;6.90;;;;;;;10.06;64.94;99013.94;8347152;28;20231;-84
2021/12/14 00:43:51;;;;;;;8.83;7.37;;;;;;;10.13;64.40;99015.47;8347063;28;20239;-84
2021/12/14 00:47:56;;;;;;;8.20;7.30;;;;;;;10.01;65.11;99016.63;8347186;28;20243;-85
2021/12/14 00:52:00;;;;;;;7.90;7.20;;;;;;;10.14;64.85;99022.34;8347140;28;20228;-84
2021/12/14 00:56:06;;;;;;;8.67;7.67;;;;;;;10.09;64.48;99019.88;8347008;28;20232;-84
2021/12/14 01:00:15;;;;;;;8.40;7.50;;;;;;;10.05;64.85;99012.22;8346913;28;20240;-84
2021/12/14 01:04:22;;;;;;;8.20;7.37;;;;;;;10.18;64.16;99023.94;8322406;28;20380;-83
2021/12/14 01:08:27;;;;;;;7.30;5.13;;;;;;;10.07;64.03;99020.78;8314396;28;20237;-84
2021/12/14 01:12:39;;;;;;;5.17;4.67;;;;;;;9.86;64.51;99027.34;8314230;28;20229;-83
2021/12/14 01:16:52;;;;;;;5.10;4.23;;;;;;;9.87;64.54;99022.13;8314342;28;20233;-83
2021/12/14 01:21:02;;;;;;;3.80;3.50;;;;;;;9.69;64.17;99025.16;8314237;28;20229;-83
2021/12/14 01:25:13;;;;;;;3.70;3.40;;;;;;;9.49;64.71;99017.88;8317695;28;20229;-83
2021/12/14 01:29:18;;;;;;;5.03;3.43;;;;;;;9.82;64.38;99015.38;8319559;28;20233;-83
2021/12/14 01:33:23;;;;;;;3.27;2.97;;;;;;;9.72;64.18;99022.50;8320048;28;20240;-82
2021/12/14 01:37:38;;;;;;;3.90;3.27;;;;;;;9.77;64.20;99033.63;8319860;28;20244;-82
2021/12/14 01:41:42;;;;;;;3.07;2.70;;;;;;;10.01;63.25;99026.97;8319508;28;20239;-83
2021/12/14 01:45:45;;;;;;;5.43;2.70;;;;;;;10.10;63.25;99029.31;8321431;28;20201;-82
2021/12/14 01:49:49;;;;;;;3.20;2.90;;;;;;;9.98;63.37;99035.66;8321243;28;20213;-82
2021/12/14 01:53:55;;;;;;;2.60;2.40;;;;;;;9.86;63.20;99040.28;8319269;28;20240;-84
2021/12/14 01:57:59;;;;;;;2.20;2.00;;;;;;;9.66;63.11;99039.03;8319027;28;20430;-83
2021/12/14 02:02:18;;;;;;;3.43;2.23;;;;;;;9.90;62.73;99032.44;8319071;28;20225;-83
2021/12/14 02:06:24;;;;;;;2.10;1.77;;;;;;;9.67;63.30;99029.53;8319040;28;20243;-83
2021/12/14 02:10:31;;;;;;;3.60;1.90;;;;;;;9.53;63.45;99038.47;8318881;28;20295;-83
2021/12/14 02:14:34;;;;;;;2.70;2.03;;;;;;;9.75;62.97;99030.22;8318451;28;20252;-83
2021/12/14 02:18:38;;;;;;;2.10;1.90;;;;;;;9.70;62.78;99030.31;8318259;28;20450;-83
2021/12/14 02:22:43;;;;;;;2.43;2.10;;;;;;;9.48;62.99;99023.94;8318293;28;20243;-83
2021/12/14 02:26:46;;;;;;;2.10;1.80;;;;;;;9.32;63.63;99021.69;8318348;28;20229;-83
2021/12/14 02:30:52;;;;;;;2.30;2.10;;;;;;;9.15;63.96;99024.66;8318087;28;20233;-83
2021/12/14 02:35:00;;;;;;;2.27;1.80;;;;;;;8.95;64.47;99021.66;8316819;28;20344;-83
2021/12/14 02:39:10;;;;;;;2.00;1.90;;;;;;;8.91;64.39;99017.41;8317543;28;20252;-83
2021/12/14 02:43:13;;;;;;;5.30;2.20;;;;;;;9.14;63.54;99016.97;8317433;28;20558;-82
2021/12/14 02:47:18;;;;;;;2.30;2.10;;;;;;;9.52;62.68;99023.84;8317284;28;20240;-82
2021/12/14 02:51:23;;;;;;;3.30;2.67;;;;;;;9.66;62.57;99014.91;8317305;28;20237;-83
2021/12/14 02:55:28;;;;;;;3.77;3.37;;;;;;;9.62;62.41;98996.03;8317301;28;20263;-83
2021/12/14 02:59:35;;;;;;;4.13;3.73;;;;;;;9.59;62.36;99003.84;8317121;28;20248;-83
2021/12/14 03:03:39;;;;;;;4.60;4.20;;;;;;;9.58;62.54;98994.41;8316903;28;20232;-83
2021/12/14 03:07:45;;;;;;;4.53;4.13;;;;;;;9.50;62.41;98986.84;8316725;28;20232;-83
2021/12/14 03:11:50;;;;;;;4.53;4.13;;;;;;;9.42;62.10;98991.31;8316938;28;20232;-83
2021/12/14 03:15:57;;;;;;;4.73;4.33;;;;;;;9.52;62.42;98989.34;8316782;28;20244;-83
2021/12/14 03:20:04;;;;;;;4.80;4.40;;;;;;;9.61;62.11;98998.66;8316646;28;20237;-83
2021/12/14 03:24:10;;;;;;;5.77;4.80;;;;;;;9.42;62.39;99008.56;8316631;28;20291;-84
2021/12/14 03:28:16;;;;;;;5.47;4.90;;;;;;;9.45;61.63;99014.53;8316082;28;20232;-83
2021/12/14 03:32:20;;;;;;;6.03;5.13;;;;;;;9.09;62.75;99009.28;8316209;28;20233;-82
2021/12/14 03:36:25;;;;;;;5.50;5.00;;;;;;;9.41;61.96;99019.81;8316217;28;20243;-82
2021/12/14 03:40:28;;;;;;;4.33;3.93;;;;;;;9.13;62.53;99000.56;8315301;28;20248;-82
2021/12/14 03:44:34;;;;;;;5.80;4.70;;;;;;;9.41;61.79;99014.66;8315506;28;20237;-83
2021/12/14 03:48:40;;;;;;;4.90;4.40;;;;;;;9.32;61.71;99018.28;8315153;28;20236;-83
2021/12/14 03:52:44;;;;;;;4.77;4.30;;;;;;;9.30;61.74;99002.78;8315625;28;20228;-83
2021/12/14 03:56:48;;;;;;;4.50;4.10;;;;;;;9.39;61.32;99005.16;8315385;28;20232;-83
2021/12/14 04:00:55;;;;;;;4.00;3.60;;;;;;;9.39;61.21;99009.50;8315327;28;20244;-83
2021/12/14 04:05:04;;;;;;;3.87;3.57;;;;;;;9.32;61.21;99013.09;8315111;28;20274;-83
2021/12/14 04:09:11;;;;;;;4.10;3.70;;;;;;;9.33;61.40;99025.16;8315332;28;20437;-83
2021/12/14 04:13:15;;;;;;;4.20;3.80;;;;;;;9.42;61.47;99018.91;8314859;28;20235;-84
2021/12/14 04:17:20;;;;;;;4.43;4.03;;;;;;;9.36;61.47;99010.41;8314936;28;20233;-83
2021/12/14 04:21:23;;;;;;;6.70;3.73;;;;;;;9.41;61.47;99012.06;8314721;28;20239;-83
2021/12/14 04:25:30;;;;;;;4.50;4.10;;;;;;;9.40;61.24;99006.00;8314849;28;20233;-84
2021/12/14 04:29:34;;;;;;;4.70;4.20;;;;;;;9.44;61.53;98999.88;8314841;28;20244;-84
2021/12/14 04:33:41;;;;;;;6.30;4.57;;;;;;;9.40;61.64;98987.91;8314730;28;20228;-85
2021/12/14 04:37:48;;;;;;;5.40;4.90;;;;;;;9.43;61.47;98974.94;8314834;28;20232;-85
2021/12/14 04:55:01;;;;;;;7.10;6.03;;;;;;;9.45;61.89;98949.88;8314582;28;20540;-85
2021/12/14 04:59:07;;;;;;;7.00;6.10;;;;;;;9.45;61.77;98957.63;8316363;28;20232;-84
2021/12/14 05:03:14;;;;;;;9.20;6.40;;;;;;;9.39;61.59;98950.88;8321110;28;20531;-85
2021/12/14 05:11:44;;;;;;;7.30;6.60;;;;;;;9.43;61.76;98938.72;8283165;28;20228;-85
2021/12/14 05:15:47;;;;;;;7.07;6.30;;;;;;;9.29;62.12;98930.44;8320235;28;20279;-85
2021/12/14 05:19:51;;;;;;;6.50;5.80;;;;;;;9.48;61.45;98926.56;8320067;28;20244;-86
2021/12/14 05:23:56;;;;;;;5.23;4.73;;;;;;;9.42;61.06;98925.84;8320003;28;20229;-85
2021/12/14 05:28:04;;;;;;;5.43;4.93;;;;;;;9.38;61.24;98932.81;8319970;28;20296;-85
2021/12/14 05:32:08;;;;;;;6.00;4.60;;;;;;;9.34;60.86;98937.19;8319831;28;20239;-85
2021/12/14 05:36:15;;;;;;;4.47;4.07;;;;;;;9.22;61.00;98947.84;8319916;28;20232;-86
2021/12/14 05:40:38;;;;;;;5.00;4.57;;;;;;;9.32;60.88;98944.16;8319255;28;20239;-85
2021/12/14 05:44:44;;;;;;;5.50;4.93;;;;;;;9.26;61.25;98933.97;8319408;28;20232;-85
2021/12/14 05:48:47;;;;;;;5.70;5.13;;;;;;;9.15;61.05;98929.03;8319606;28;20421;-84
2021/12/14 05:52:51;;;;;;;6.20;5.60;;;;;;;8.96;61.05;98933.75;8319326;28;20240;-83
2021/12/14 05:56:58;;;;;;;5.73;5.23;;;;;;;8.98;60.97;98932.00;8318851;28;20236;-82
2021/12/14 06:01:04;;;;;;;5.10;4.60;;;;;;;8.95;61.35;98942.41;8318291;28;20249;-83
2021/12/14 06:05:11;;;;;;;4.83;4.43;;;;;;;8.79;61.53;98947.06;8318594;28;20228;-83
2021/12/14 06:09:17;;;;;;;10.93;9.50;;;;;;;8.68;62.16;98967.13;8318565;28;20236;-83
2021/12/14 06:13:22;;;;;;;6.20;5.60;;;;;;;8.85;61.81;98961.56;8319011;28;20539;-84
2021/12/14 06:17:29;;;;;;;4.97;3.53;;;;;;;8.67;61.96;98947.31;8320228;28;20531;-84
2021/12/14 06:21:33;;;;;;;3.57;3.27;;;;;;;8.51;62.13;98944.22;8285937;28;20242;-82
2021/12/14 06:25:36;;;;;;;3.17;2.80;;;;;;;8.68;62.19;98937.84;8317071;28;20239;-84
2021/12/14 06:29:46;;;;;;;3.27;2.93;;;;;;;8.77;61.73;98940.22;8317526;28;20316;-82
2021/12/14 06:33:48;;;;;;;3.07;2.60;;;;;;;8.65;61.77;98933.59;8318500;28;20240;-84
2021/12/14 06:38:23;;;;;;;3.97;3.20;;;;;;;8.82;61.35;98924.66;8318124;28;20527;-84
2021/12/14 06:42:26;;;;;;;3.60;3.30;;;;;;;8.87;61.74;98915.03;8311553;28;20225;-84
2021/12/14 06:46:33;;;;;;;3.90;3.20;;;;;;;8.92;61.38;98919.22;8317688;28;20237;-84
2021/12/14 06:50:40;;;;;;;3.43;3.10;;;;;;;8.92;60.97;98924.41;8317198;28;20251;-84
2021/12/14 06:54:44;;;;;;;5.00;3.93;;;;;;;8.90;60.89;98925.31;8317026;28;20233;-83
2021/12/14 06:58:52;;;;;;;5.90;4.40;;;;;;;8.83;60.89;98934.91;8316974;28;20243;-83
2021/12/14 07:02:56;;;;;;;5.47;4.70;;;;;;;8.35;61.92;98937.63;8316315;28;20263;-83
2021/12/14 07:07:01;;;;;;;4.70;4.30;;;;;;;8.74;61.85;98945.47;8315672;28;20510;-83
2021/12/14 07:11:05;;;;;;;4.57;4.17;;;;;;;8.92;61.20;98970.91;8315949;28;20235;-83
2021/12/14 07:15:12;;;;;;;4.60;4.20;;;;;;;8.98;61.27;98975.06;8316640;28;20290;-83
2021/12/14 07:19:17;;;;;;;4.70;4.20;;;;;;;9.02;60.85;98973.28;8283460;28;20422;-83
2021/12/14 07:23:25;;;;;;;5.50;5.00;;;;;;;8.93;60.90;98974.31;8282926;28;20431;-83
2021/12/14 07:27:29;;;;;;;6.47;5.30;;;;;;;8.73;62.06;98956.69;8283339;28;20225;-83
2021/12/14 07:31:32;;;;;;;5.80;4.60;;;;;;;9.02;61.08;98958.63;8283050;28;20247;-83
2021/12/14 07:35:47;;;;;;;5.20;4.70;;;;;;;9.09;60.60;98956.75;8283576;28;20332;-83
2021/12/14 07:39:51;;;;;;;6.97;5.37;;;;;;;9.07;60.93;98955.94;8283146;28;20241;-83
2021/12/14 07:43:58;;;;;;;6.33;5.60;;;;;;;9.05;60.93;98960.31;8283364;28;20408;-83
2021/12/14 07:48:01;;;;;;;5.73;5.00;;;;;;;8.96;61.03;98976.84;8283550;28;20555;-83
2021/12/14 07:52:14;;;;;;;4.70;4.30;;;;;;;9.08;60.64;98958.50;8283157;28;20237;-83
2021/12/14 07:56:36;;;;;;;6.37;5.60;;;;;;;8.88;61.33;98966.69;8315196;28;20390;-82
2021/12/14 08:00:40;;;;;;;7.63;5.77;;;;;;;8.88;61.26;98960.66;8315349;28;20232;-83
2021/12/14 08:04:46;;;;;;;10.53;4.33;;;;;;;10.95;77.30;98977.84;8315313;28;20295;-72
2021/12/14 08:08:54;;;;;;;7.07;6.13;;;;;;;10.91;57.19;98964.13;8315422;28;20232;-72
2021/12/14 08:12:59;;;;;;;5.37;4.50;;;;;;;11.09;55.87;98956.69;8315245;28;20239;-79
2021/12/14 08:17:09;;;;;;;5.83;5.23;;;;;;;9.93;57.84;98961.63;8315067;28;20224;-81
2021/12/14 08:21:15;;;;;;;5.80;5.23;;;;;;;9.74;59.49;98977.59;8314386;28;20239;-79
2021/12/14 08:25:25;;;;;;;7.17;6.27;;;;;;;9.61;59.36;98976.22;8314500;28;20239;-81
2021/12/14 08:29:30;;;;;;;9.67;6.60;;;;;;;9.51;59.53;99000.59;8314741;28;20243;-82
2021/12/14 08:33:33;;;;;;;6.60;5.90;;;;;;;9.54;59.46;99000.53;8315178;28;20231;-75
2021/12/14 08:37:42;;;;;;;6.33;5.67;;;;;;;9.45;60.01;98991.25;8322289;28;20437;-73
2021/12/14 08:41:51;;;;;;;5.87;5.27;;;;;;;9.43;60.27;98982.69;8321856;28;20418;-73
2021/12/14 08:46:02;;;;;;;7.50;6.77;;;;;;;9.13;59.91;98972.16;8322034;28;20239;-72
2021/12/14 08:50:10;;;;;;;7.00;6.30;;;;;;;9.14;61.03;98979.03;8321887;28;20252;-74
2021/12/14 08:54:16;;;;;;;7.83;7.03;;;;;;;8.91;61.24;98973.50;8321441;28;20228;-73
2021/12/14 08:58:20;;;;;;;7.30;6.60;;;;;;;9.13;61.21;98985.06;8321474;28;20245;-74
2021/12/14 09:02:25;;;;;;;7.73;6.90;;;;;;;9.30;60.99;98989.88;8329740;28;20228;-74
2021/12/14 09:06:34;;;;;;;8.30;7.40;;;;;;;9.17;61.52;98989.28;8354184;28;20262;-74
2021/12/14 09:10:43;;;;;;;7.83;7.13;;;;;;;9.21;61.19;98992.66;8353915;28;20248;-72
2021/12/14 09:14:49;;;;;;;7.90;7.10;;;;;;;9.24;60.76;99000.34;8354236;28;20224;-72
2021/12/14 09:18:58;;;;;;;8.77;6.80;;;;;;;9.43;61.05;99002.53;8353708;28;20243;-74
2021/12/14 09:23:04;;;;;;;14.40;9.07;;;;;;;8.90;61.73;98979.56;8353808;28;20551;-73
2021/12/14 09:27:10;;;;;;;10.97;8.50;;;;;;;9.30;61.32;98971.78;8353783;28;20542;-74
2021/12/14 09:31:19;;;;;;;9.83;8.10;;;;;;;9.27;61.08;98963.22;8352368;28;20432;-72
2021/12/14 09:35:25;;;;;;;11.23;9.43;;;;;;;9.42;61.20;98954.28;8352810;28;20236;-72
2021/12/14 09:39:33;;;;;;;11.53;9.50;;;;;;;9.48;60.96;98957.59;8352373;28;20240;-75
2021/12/14 09:43:36;;;;;;;10.83;9.03;;;;;;;9.45;60.93;98951.63;8352456;28;20228;-70
2021/12/14 09:47:42;;;;;;;11.10;9.20;;;;;;;9.52;61.50;98951.44;8352247;28;20539;-69
2021/12/14 09:51:49;;;;;;;12.87;9.93;;;;;;;9.61;61.13;98958.09;8344091;28;20232;-71
2021/12/14 09:55:52;;;;;;;10.53;9.00;;;;;;;9.65;61.04;98954.56;8341057;28;20535;-73
2021/12/14 09:59:58;;;;;;;11.23;9.90;;;;;;;9.66;61.03;98966.63;8318964;28;20427;-72
2021/12/14 10:04:07;;;;;;;14.53;9.97;;;;;;;9.86;62.64;98967.84;8319122;28;20239;-72
2021/12/14 10:08:15;;;;;;;13.33;10.60;;;;;;;9.69;61.11;98973.44;8323900;28;20228;-73
2021/12/14 10:16:42;;;;;;;13.97;10.67;;;;;;;9.72;61.46;98960.44;8337755;28;20551;-74
2021/12/14 10:20:52;;;;;;;12.83;10.40;;;;;;;9.88;60.89;98955.72;8318640;28;20460;-72
2021/12/14 10:24:58;;;;;;;16.50;11.33;;;;;;;9.82;61.11;98958.47;8329716;28;20239;-72
2021/12/14 10:29:02;;;;;;;13.73;10.77;;;;;;;9.83;61.20;98965.34;8350638;28;20235;-72
2021/12/14 10:33:05;;;;;;;15.47;11.80;;;;;;;9.68;61.71;98969.16;8350989;28;20232;-72
2021/12/14 10:37:18;;;;;;;15.77;11.30;;;;;;;9.85;61.42;98966.16;8350692;28;20232;-71
2021/12/14 10:45:45;;;;;;;17.40;10.63;;;;;;;9.89;61.58;98986.72;8351061;28;20232;-72
2021/12/14 10:49:49;;;;;;;18.77;12.43;;;;;;;9.97;61.41;98989.97;8350798;28;20243;-73
2021/12/14 10:53:54;;;;;;;17.97;12.60;;;;;;;9.97;61.30;98989.13;8350904;28;20531;-72
2021/12/14 10:58:15;;;;;;;18.87;12.63;;;;;;;10.02;61.27;99004.53;8320750;28;20419;-69
2021/12/14 11:02:23;;;;;;;17.67;12.90;;;;;;;10.03;61.46;99003.63;8317339;28;20240;-75
2021/12/14 11:06:29;;;;;;;18.57;12.70;;;;;;;9.92;61.12;98989.25;8317115;28;20283;-76
2021/12/14 11:10:38;;;;;;;17.93;12.37;;;;;;;10.05;61.64;98986.34;8317413;28;20415;-77
2021/12/14 11:14:41;;;;;;;20.73;13.87;;;;;;;9.97;61.64;98973.59;8317248;28;20240;-76
2021/12/14 11:18:46;;;;;;;19.07;13.37;;;;;;;9.75;62.80;98962.97;8316671;28;20233;-76
2021/12/14 11:22:52;;;;;;;20.83;13.77;;;;;;;9.59;63.26;98952.13;8316606;28;20233;-75
2021/12/14 11:27:20;;;;;;;17.53;13.00;;;;;;;9.77;62.56;98938.75;8317397;28;20556;-76
2021/12/14 11:31:27;;;;;;;23.93;14.57;;;;;;;9.67;63.06;98939.00;8309550;28;20323;-77
2021/12/14 11:35:32;;;;;;;21.43;14.13;;;;;;;9.75;62.78;98939.69;8316098;28;20236;-77
2021/12/14 11:39:38;;;;;;;24.57;14.30;;;;;;;9.94;62.36;98930.53;8315275;28;20237;-76
2021/12/14 11:43:51;;;;;;;21.37;13.53;;;;;;;10.03;62.07;98936.34;8315865;28;20597;-76
2021/12/14 11:47:59;;;;;;;21.70;14.93;;;;;;;10.01;62.03;98941.56;8315724;28;20232;-77
2021/12/14 11:52:04;;;;;;;23.27;14.67;;;;;;;10.02;62.34;98935.50;8315896;28;20236;-77
2021/12/14 11:56:10;;;;;;;23.10;15.30;;;;;;;9.51;63.65;98944.56;8315365;28;20232;-74
2021/12/14 12:00:18;;;;;;;22.07;14.17;;;;;;;9.67;63.63;98957.97;8282172;28;20229;-75
2021/12/14 12:04:29;;;;;;;20.70;14.83;;;;;;;9.87;63.08;98964.38;8282757;28;20541;-74
2021/12/14 12:12:53;;;;;;;23.43;16.00;;;;;;;9.54;64.34;98938.47;8282744;28;20237;-76
2021/12/14 12:17:06;;;;;;;23.73;16.73;;;;;;;9.66;63.87;98922.66;8282690;28;20233;-71
2021/12/14 12:21:09;;;;;;;24.10;16.00;;;;;;;9.65;64.39;98927.84;8282691;28;20241;-71
2021/12/14 12:25:14;;;;;;;22.63;15.93;;;;;;;9.75;63.46;98919.81;8290148;28;20232;-71
2021/12/14 12:29:26;;;;;;;23.23;15.97;;;;;;;9.84;63.29;98913.53;8311581;28;20558;-70
2021/12/14 12:33:33;;;;;;;23.50;15.50;;;;;;;9.71;64.31;98905.28;8314030;28;20229;-74
2021/12/14 12:37:40;;;;;;;25.00;15.97;;;;;;;9.93;63.67;98910.72;8314206;28;20233;-74
2021/12/14 12:41:47;;;;;;;23.47;18.50;;;;;;;10.08;63.41;98917.22;8299210;28;20235;-71
2021/12/14 12:45:58;;;;;;;20.07;16.03;;;;;;;9.82;64.25;98910.16;8327536;28;20224;-71
2021/12/14 12:50:04;;;;;;;22.83;17.97;;;;;;;10.02;63.58;98908.78;8327696;28;20238;-72
2021/12/14 12:54:12;;;;;;;23.97;18.10;;;;;;;9.98;63.77;98921.81;8327915;28;20231;-72
2021/12/14 12:58:17;;;;;;;24.13;18.03;;;;;;;10.06;63.76;98923.34;8281905;28;20230;-73
2021/12/14 13:02:24;;;;;;;21.07;16.73;;;;;;;9.98;63.92;98911.47;8281081;28;20233;-72
2021/12/14 13:06:29;;;;;;;19.63;15.60;;;;;;;10.05;63.82;98898.34;8321919;28;20227;-71
2021/12/14 13:10:37;;;;;;;17.63;15.73;;;;;;;10.20;63.36;98903.09;8330474;28;20254;-72
2021/12/14 13:14:40;;;;;;;16.23;14.43;;;;;;;10.15;63.49;98904.97;8330263;28;20235;-72
2021/12/14 13:18:55;;;;;;;18.77;15.60;;;;;;;10.23;62.85;98909.94;8330313;28;20236;-72
2021/12/14 13:23:02;;;;;;;16.93;15.10;;;;;;;10.24;63.41;98906.44;8335198;28;20228;-71
2021/12/14 13:27:08;;;;;;;17.47;15.57;;;;;;;10.14;63.76;98914.47;8336382;28;20224;-72
2021/12/14 13:31:11;;;;;;;17.73;15.03;;;;;;;10.10;63.60;98910.25;8333923;28;20558;-72
2021/12/14 13:35:18;;;;;;;19.50;17.23;;;;;;;10.13;63.69;98923.13;8302914;28;20431;-72
2021/12/14 13:39:23;;;;;;;17.73;15.50;;;;;;;10.23;63.33;98920.31;8303338;28;20240;-72
2021/12/14 13:43:37;;;;;;;20.57;18.23;;;;;;;10.29;63.26;98925.31;8286939;28;20524;-73
2021/12/14 13:47:41;;;;;;;19.00;16.07;;;;;;;10.22;63.55;98919.44;8287164;28;20520;-75
2021/12/14 13:51:45;;;;;;;18.67;14.77;;;;;;;10.29;63.19;98933.06;8286817;28;20233;-78
2021/12/14 13:55:54;;;;;;;18.63;16.33;;;;;;;10.19;62.96;98932.47;8286728;28;20528;-78
2021/12/14 13:59:57;;;;;;;18.27;15.53;;;;;;;10.24;63.17;98942.69;8286310;28;20549;-77
2021/12/14 14:04:02;;;;;;;19.70;14.93;;;;;;;10.14;63.23;98949.84;8286537;28;20233;-77
2021/12/14 14:08:09;;;;;;;20.13;15.77;;;;;;;10.17;63.48;98955.81;8286496;28;20225;-76
2021/12/14 14:12:16;;;;;;;19.27;16.13;;;;;;;10.24;63.10;98953.03;8285998;28;20233;-76
2021/12/14 14:16:19;;;;;;;19.97;14.23;;;;;;;10.20;62.95;98954.03;8285812;28;20240;-76
2021/12/14 14:20:28;;;;;;;18.83;14.17;;;;;;;10.23;63.12;98959.97;8286024;28;20241;-77
2021/12/14 14:24:33;;;;;;;19.70;14.03;;;;;;;10.34;63.37;98964.91;8285628;28;20233;-76
2021/12/14 14:28:41;;;;;;;17.17;14.03;;;;;;;10.13;63.14;98968.88;8285825;28;20238;-77
2021/12/14 14:32:58;;;;;;;16.87;14.20;;;;;;;10.16;63.47;98979.97;8284522;28;20237;-76
2021/12/14 14:37:06;;;;;;;20.50;14.57;;;;;;;10.16;63.36;98974.81;8285452;28;20229;-77
2021/12/14 14:41:32;;;;;;;20.37;14.73;;;;;;;10.21;63.28;98976.44;8309896;28;20252;-78
2021/12/14 14:45:37;;;;;;;18.87;14.60;;;;;;;10.15;63.46;98977.47;8312420;28;20224;-80
2021/12/14 14:50:07;;;;;;;19.17;14.77;;;;;;;10.21;63.33;98986.81;8317225;28;20233;-76
2021/12/14 14:54:44;;;;;;;17.10;13.93;;;;;;;10.24;62.87;98986.69;8317027;28;20296;-75
2021/12/14 14:58:48;;;;;;;20.40;15.13;;;;;;;10.21;63.26;98998.00;8272986;28;20430;-75
2021/12/14 15:02:54;;;;;;;24.43;19.40;;;;;;;10.27;63.41;99004.75;8309684;28;20263;-69
2021/12/14 15:07:00;;;;;;;27.33;19.10;;;;;;;10.21;63.36;99008.34;8315954;28;20323;-68
2021/12/14 15:11:15;;;;;;;23.77;16.93;;;;;;;10.18;63.61;99008.41;8313288;28;20237;-68
2021/12/14 15:15:19;;;;;;;20.20;15.77;;;;;;;10.09;63.48;99011.25;8314202;28;20231;-68
2021/12/14 15:19:30;;;;;;;21.10;15.83;;;;;;;10.12;63.79;99018.94;8316477;28;20243;-69
2021/12/14 15:23:33;;;;;;;22.30;15.87;;;;;;;10.08;64.03;99009.56;8315742;28;20233;-69
2021/12/14 15:27:54;;;;;;;18.80;15.40;;;;;;;10.17;63.54;99010.16;8315603;28;20327;-70
2021/12/14 15:32:18;;;;;;;19.27;14.67;;;;;;;10.12;63.45;99006.00;8312464;28;20244;-67
2021/12/14 15:36:26;;;;;;;19.57;14.63;;;;;;;10.15;63.58;99011.94;8279940;28;20240;-69
2021/12/14 15:40:46;;;;;;;17.70;13.80;;;;;;;10.09;64.01;99006.06;8299157;28;20242;-68
2021/12/14 15:44:52;;;;;;;18.53;13.83;;;;;;;10.10;63.63;99010.38;8307641;28;20258;-69
2021/12/14 15:49:07;;;;;;;18.03;14.20;;;;;;;10.10;63.80;99013.78;8277964;28;20229;-69
2021/12/14 15:53:21;;;;;;;17.53;13.77;;;;;;;10.11;63.39;99006.88;8277198;28;20425;-69
2021/12/14 15:57:25;;;;;;;16.80;13.63;;;;;;;10.22;63.51;99012.63;8278458;28;20229;-70
2021/12/14 16:01:33;;;;;;;16.67;13.77;;;;;;;10.15;63.50;99022.31;8282003;28;20237;-83
2021/12/14 16:05:36;;;;;;;18.03;14.17;;;;;;;10.17;63.45;99030.03;8250894;28;20234;-76
2021/12/14 16:09:46;;;;;;;22.33;16.87;;;;;;;10.22;63.39;99028.16;8274723;28;20229;-75
2021/12/14 16:18:15;;;;;;;18.03;13.77;;;;;;;10.18;63.07;99029.13;8281355;28;20229;-75
2021/12/14 16:22:20;;;;;;;15.43;13.07;;;;;;;10.22;63.10;99027.31;8280557;28;20423;-75
2021/12/14 16:26:30;;;;;;;14.07;12.23;;;;;;;10.16;63.04;99031.75;8281128;28;20428;-68
2021/12/14 16:30:37;;;;;;;16.77;13.03;;;;;;;10.10;63.19;99031.06;8288776;28;20249;-75
2021/12/14 16:34:40;;;;;;;18.07;14.30;;;;;;;10.10;63.34;99036.25;8292828;28;20232;-75
2021/12/14 16:38:46;;;;;;;17.00;14.10;;;;;;;10.16;63.05;99038.69;8300646;28;20233;-76
2021/12/14 16:42:51;;;;;;;16.60;14.33;;;;;;;10.14;63.28;99043.03;8292530;28;20431;-76
2021/12/14 16:46:56;;;;;;;17.97;15.63;;;;;;;10.04;63.58;99044.19;8295221;28;20225;-77
2021/12/14 16:51:01;;;;;;;15.93;13.37;;;;;;;10.08;63.46;99044.03;8296014;28;20236;-77
2021/12/14 16:55:08;;;;;;;16.53;13.63;;;;;;;10.15;63.19;99049.94;8301639;28;20543;-78
2021/12/14 16:59:16;;;;;;;18.30;14.13;;;;;;;10.15;63.27;99061.13;8292138;28;20532;-77
2021/12/14 17:03:21;;;;;;;17.30;15.47;;;;;;;10.08;63.09;99061.31;8288057;28;20241;-75
2021/12/14 17:07:27;;;;;;;19.00;16.23;;;;;;;10.05;63.55;99076.91;8288255;28;20241;-76
2021/12/14 17:11:31;;;;;;;16.10;14.40;;;;;;;10.12;63.36;99075.88;8299390;28;20247;-76
2021/12/14 17:15:39;;;;;;;17.63;15.50;;;;;;;10.05;63.12;99076.91;8320667;28;20239;-79
2021/12/14 17:19:46;;;;;;;17.30;14.97;;;;;;;9.98;63.47;99081.41;8316679;28;20237;-77
2021/12/14 17:23:55;;;;;;;18.63;15.73;;;;;;;10.05;63.72;99092.44;8297819;28;20244;-75
2021/12/14 17:27:58;;;;;;;17.33;14.77;;;;;;;10.03;63.86;99087.28;8285365;28;20225;-75
2021/12/14 17:32:06;;;;;;;17.00;15.13;;;;;;;10.14;63.26;99100.00;8284671;28;20252;-75
2021/12/14 17:36:12;;;;;;;15.87;14.17;;;;;;;10.11;63.31;99107.81;8287354;28;20225;-75
2021/12/14 17:40:17;;;;;;;18.23;15.90;;;;;;;9.98;63.70;99095.19;8304040;28;20420;-75
2021/12/14 17:44:23;;;;;;;16.77;14.97;;;;;;;9.96;63.99;99088.34;8318525;28;20574;-76
2021/12/14 17:48:33;;;;;;;17.27;15.47;;;;;;;10.07;63.31;99091.53;8312066;28;20563;-75
2021/12/14 17:52:39;;;;;;;20.90;17.07;;;;;;;10.06;63.44;99084.66;8317053;28;20244;-75
2021/12/14 17:56:44;;;;;;;20.60;18.03;;;;;;;10.07;63.79;99082.91;8307789;28;20232;-75
2021/12/14 18:00:50;;;;;;;21.40;18.40;;;;;;;9.96;63.79;99090.94;8318076;28;20548;-76
2021/12/14 18:04:58;;;;;;;16.90;15.03;;;;;;;10.08;63.44;99103.56;8285550;28;20230;-75
2021/12/14 18:09:07;;;;;;;17.07;15.20;;;;;;;10.09;63.17;99101.84;8284506;28;20225;-76
2021/12/14 18:13:13;;;;;;;17.90;15.73;;;;;;;10.10;63.18;99101.78;8290974;28;20264;-77
2021/12/14 18:17:24;;;;;;;15.47;13.90;;;;;;;10.09;63.31;99105.28;8299674;28;20220;-76
2021/12/14 18:21:32;;;;;;;16.50;14.70;;;;;;;10.06;63.52;99102.75;8315033;28;20464;-76
2021/12/14 18:25:35;;;;;;;16.57;14.87;;;;;;;10.09;63.13;99107.88;8308552;28;20234;-75
2021/12/14 18:29:42;;;;;;;15.77;13.67;;;;;;;10.10;63.32;99095.78;8294374;28;20233;-76
2021/12/14 18:33:45;;;;;;;15.87;14.03;;;;;;;10.13;63.31;99087.94;8285059;28;20233;-76
2021/12/14 18:37:51;;;;;;;16.53;14.73;;;;;;;10.11;63.30;99095.75;8297899;28;20253;-77
2021/12/14 18:42:05;;;;;;;59.33;24.70;;;;;;;12.10;71.47;99091.00;8316114;28;20399;-72
2021/12/14 18:46:12;;;;;;;18.13;14.67;;;;;;;12.56;58.85;99092.97;8292296;28;20241;-75
2021/12/14 18:50:19;;;;;;;17.27;14.70;;;;;;;11.32;60.35;99101.19;8284700;28;20307;-76
2021/12/14 18:54:26;;;;;;;17.50;15.70;;;;;;;11.04;60.83;99104.59;8302395;28;20547;-74
2021/12/14 18:58:35;;;;;;;21.20;18.47;;;;;;;10.80;61.36;99111.28;8306046;28;20533;-74
2021/12/14 19:02:38;;;;;;;20.40;17.87;;;;;;;10.68;61.94;99111.59;8303465;28;20229;-78
2021/12/14 19:06:44;;;;;;;18.10;16.17;;;;;;;10.61;61.87;99115.25;8299685;28;20573;-77
2021/12/14 19:10:52;;;;;;;19.37;17.40;;;;;;;10.49;62.10;99114.69;8298595;28;20225;-78
2021/12/14 19:15:10;;;;;;;18.63;16.73;;;;;;;10.43;62.39;99126.91;8303102;28;20232;-76
2021/12/14 19:19:18;;;;;;;21.90;19.10;;;;;;;10.42;62.58;99140.78;8283908;28;20225;-76
2021/12/14 19:23:33;;;;;;;29.20;26.03;;;;;;;10.43;62.04;99122.59;8283053;28;20240;-75
2021/12/14 19:27:38;;;;;;;21.77;19.57;;;;;;;10.42;62.69;99127.84;8281711;28;20264;-76
2021/12/14 19:31:46;;;;;;;34.67;29.97;;;;;;;10.41;62.58;99133.88;8282987;28;20237;-78
2021/12/14 19:35:49;;;;;;;23.23;19.63;;;;;;;10.30;63.14;99139.28;8280813;28;20242;-77
2021/12/14 19:39:53;;;;;;;22.40;18.90;;;;;;;10.26;62.94;99141.13;8271751;28;20242;-74
2021/12/14 19:44:04;;;;;;;23.13;18.50;;;;;;;10.32;63.06;99135.81;8255048;28;20234;-74
2021/12/14 19:48:18;;;;;;;20.30;17.87;;;;;;;10.35;62.67;99142.66;8248022;28;20230;-75
2021/12/14 19:52:22;;;;;;;19.70;17.53;;;;;;;10.20;63.40;99137.81;8250040;28;20226;-75
2021/12/14 19:56:25;;;;;;;19.87;17.53;;;;;;;10.34;63.30;99126.28;8250192;28;20226;-75